Time;durP1;ratioP1;P1;durP2;ratioP2;P2;SDS_P1;SDS_P2;PMS_P1;PMS_P2;Temp;Humidity;BMP_temperature;BMP_pressure;BME280_temperature;BME280_humidity;BME280_pressure;Samples;Min_cycle;Max_cycle;Signal;HPM_P1;HPM_P2
2022/08/22 00:00:14;;;;;;;9.70;4.37;;;;;;;19.64;89.03;98293.08;1696048;84;21019;-79
2022/08/22 00:03:06;;;;;;;14.15;4.72;;;;;;;19.67;89.43;98311.77;1712438;84;21084;-79
2022/08/22 00:05:46;;;;;;;13.88;4.53;;;;;;;19.71;90.33;98309.75;1686538;84;21054;-79
2022/08/22 00:08:37;;;;;;;8.35;3.80;;;;;;;19.74;89.83;98310.88;1714785;84;21007;-79
2022/08/22 00:11:27;;;;;;;11.10;4.55;;;;;;;19.76;89.85;98311.61;1715059;84;21010;-79
2022/08/22 00:14:02;;;;;;;10.20;4.83;;;;;;;19.77;90.11;98311.47;1696135;84;21090;-80
2022/08/22 00:16:54;;;;;;;8.43;4.42;;;;;;;19.79;88.97;98308.72;1715053;84;21051;-79
2022/08/22 00:19:31;;;;;;;12.28;4.65;;;;;;;19.79;89.81;98312.68;1715336;84;21039;-80
2022/08/22 00:22:18;;;;;;;12.55;5.05;;;;;;;19.80;89.78;98316.53;1702475;83;21034;-80
2022/08/22 00:25:11;;;;;;;7.85;4.12;;;;;;;19.84;89.79;98316.66;1691694;84;21527;-80
2022/08/22 00:27:45;;;;;;;8.40;4.12;;;;;;;19.85;89.72;98320.12;1616635;87;21065;-79
2022/08/22 00:30:16;;;;;;;11.85;3.95;;;;;;;19.83;89.22;98311.00;1656542;85;21119;-81
2022/08/22 00:32:48;;;;;;;7.37;4.40;;;;;;;19.75;88.70;98319.14;1686580;85;21157;-79
2022/08/22 00:35:32;;;;;;;10.65;4.30;;;;;;;19.68;89.01;98318.25;1686865;84;21054;-80
2022/08/22 00:38:27;;;;;;;13.08;4.53;;;;;;;19.67;89.13;98311.28;1687190;84;21090;-79
2022/08/22 00:41:08;;;;;;;10.30;3.98;;;;;;;19.63;89.20;98303.24;1724252;83;21019;-80
2022/08/22 00:44:15;;;;;;;11.03;3.95;;;;;;;19.61;89.35;98309.11;1689081;84;21029;-80
2022/08/22 00:47:17;;;;;;;11.80;4.15;;;;;;;19.57;88.99;98307.66;1695433;84;21058;-81
2022/08/22 00:49:52;;;;;;;9.03;3.33;;;;;;;19.49;87.81;98315.30;1682044;84;21007;-81
2022/08/22 00:52:41;;;;;;;9.50;4.12;;;;;;;19.41;88.63;98318.98;1721970;83;21067;-80
2022/08/22 00:55:34;;;;;;;11.18;4.08;;;;;;;19.41;89.08;98317.66;1665118;84;21504;-80
2022/08/22 00:58:34;;;;;;;11.03;4.05;;;;;;;19.39;89.41;98324.36;1691229;84;21019;-80
2022/08/22 01:01:09;;;;;;;6.95;3.62;;;;;;;19.37;88.97;98330.22;1686089;84;21027;-79
2022/08/22 01:03:47;;;;;;;10.30;3.90;;;;;;;19.35;89.48;98353.22;1681574;85;21023;-79
2022/08/22 01:06:45;;;;;;;12.20;3.67;;;;;;;19.38;89.68;98342.95;1682174;84;21023;-79
2022/08/22 01:09:23;;;;;;;11.65;4.05;;;;;;;19.38;90.06;98345.10;1697728;83;21687;-79
2022/08/22 01:12:13;;;;;;;8.85;4.20;;;;;;;19.38;91.10;98335.88;1688436;83;21026;-79
2022/08/22 01:14:54;;;;;;;13.28;4.67;;;;;;;19.28;93.58;98319.89;1685798;84;21607;-78
2022/08/22 01:17:57;;;;;;;8.38;3.52;;;;;;;19.11;95.35;98297.88;1709757;83;21024;-78
2022/08/22 01:21:05;;;;;;;9.83;3.85;;;;;;;19.11;94.17;98297.05;1721024;83;21024;-78
2022/08/22 01:23:43;;;;;;;8.28;3.83;;;;;;;19.07;92.98;98294.63;1730380;82;21071;-78
2022/08/22 01:26:58;;;;;;;8.75;4.50;;;;;;;19.08;92.54;98292.85;1742634;82;21085;-78
2022/08/22 01:29:45;;;;;;;9.93;4.70;;;;;;;19.10;92.63;98305.89;1694880;84;21042;-78
2022/08/22 01:32:53;;;;;;;13.78;4.80;;;;;;;19.16;92.31;98323.87;1714472;84;21051;-78
2022/08/22 01:36:02;;;;;;;9.05;4.33;;;;;;;19.19;92.69;98331.09;1715253;84;21087;-78
2022/08/22 01:38:52;;;;;;;13.15;4.65;;;;;;;19.25;93.59;98338.55;1715210;84;21074;-79
2022/08/22 01:41:36;;;;;;;15.72;4.70;;;;;;;19.30;93.67;98338.69;1714630;84;21546;-79
2022/08/22 01:44:28;;;;;;;11.03;4.60;;;;;;;19.34;93.59;98347.59;1715297;84;21038;-79
2022/08/22 01:47:06;;;;;;;10.28;4.90;;;;;;;19.36;92.56;98351.41;1713428;84;21079;-78
2022/08/22 01:49:38;;;;;;;16.70;5.53;;;;;;;19.38;93.27;98362.72;1694961;84;21018;-79
2022/08/22 01:52:22;;;;;;;11.05;5.00;;;;;;;19.41;92.88;98361.16;1715210;84;21046;-79
2022/08/22 01:54:57;;;;;;;10.05;4.87;;;;;;;19.43;93.87;98352.17;1700091;84;21015;-78
2022/08/22 01:57:25;;;;;;;10.30;5.08;;;;;;;19.45;93.34;98344.16;1714517;84;21025;-78
2022/08/22 01:59:57;;;;;;;10.45;4.70;;;;;;;19.48;93.47;98337.36;1696451;84;21463;-78
2022/08/22 02:02:31;;;;;;;16.50;4.70;;;;;;;19.49;92.42;98327.16;1715220;84;21035;-79
2022/08/22 02:05:13;;;;;;;11.80;4.87;;;;;;;19.47;93.11;98322.48;1713508;84;21010;-78
2022/08/22 02:08:00;;;;;;;10.65;5.08;;;;;;;19.49;93.45;98317.94;1764424;81;20988;-79
2022/08/22 02:11:04;;;;;;;9.53;4.83;;;;;;;19.52;94.13;98312.91;1737854;81;21058;-78
2022/08/22 02:14:08;;;;;;;7.87;4.67;;;;;;;19.53;93.99;98303.57;1758513;81;21576;-78
2022/08/22 02:16:40;;;;;;;11.30;4.92;;;;;;;19.51;93.16;98316.52;1764658;81;21270;-78
2022/08/22 02:19:15;;;;;;;12.88;4.80;;;;;;;19.49;92.24;98308.71;1752687;81;21043;-78
2022/08/22 02:22:09;;;;;;;13.78;5.53;;;;;;;19.44;92.63;98299.84;1733736;83;21091;-78
2022/08/22 02:24:47;;;;;;;15.32;5.97;;;;;;;19.43;93.80;98298.63;1704005;83;21050;-78
2022/08/22 02:27:33;;;;;;;14.80;5.30;;;;;;;19.39;94.04;98292.73;1702326;83;21535;-78
2022/08/22 02:30:18;;;;;;;11.85;5.05;;;;;;;19.35;93.17;98277.27;1706429;83;21526;-78
2022/08/22 02:33:04;;;;;;;10.78;4.97;;;;;;;19.32;93.37;98278.80;1715459;83;21075;-78
2022/08/22 02:35:39;;;;;;;13.53;5.75;;;;;;;19.30;93.71;98268.40;1715203;84;21074;-81
2022/08/22 02:38:29;;;;;;;10.63;5.10;;;;;;;19.28;93.04;98268.50;1715118;84;21082;-78
2022/08/22 02:41:07;;;;;;;9.65;4.87;;;;;;;19.25;93.83;98259.49;1764454;81;22081;-78
2022/08/22 02:44:03;;;;;;;14.33;4.90;;;;;;;19.21;92.93;98265.95;1764389;81;21011;-78
2022/08/22 02:46:48;;;;;;;6.20;4.22;;;;;;;19.19;92.90;98257.31;1751958;81;21078;-79
2022/08/22 02:49:54;;;;;;;9.03;4.35;;;;;;;19.16;92.87;98252.29;1735974;83;21046;-78
2022/08/22 02:52:54;;;;;;;10.43;3.85;;;;;;;19.08;93.15;98263.39;1647384;86;21124;-78
2022/08/22 02:55:54;;;;;;;8.65;4.33;;;;;;;19.05;92.95;98269.35;1705427;83;21003;-78
2022/08/22 02:58:49;;;;;;;12.23;4.40;;;;;;;19.06;93.11;98275.00;1736704;82;21107;-79
2022/08/22 03:01:36;;;;;;;11.75;4.62;;;;;;;19.05;93.01;98286.47;1764409;81;21038;-80
2022/08/22 03:04:31;;;;;;;8.60;4.58;;;;;;;19.06;93.65;98298.70;1768567;78;21066;-80
2022/08/22 03:07:08;;;;;;;12.90;4.92;;;;;;;19.08;93.53;98309.97;1768084;78;20956;-79
2022/08/22 03:10:04;;;;;;;7.72;4.75;;;;;;;19.10;94.10;98304.11;1765469;81;21601;-78
2022/08/22 03:12:45;;;;;;;12.75;4.83;;;;;;;19.14;94.44;98298.12;1752098;81;21023;-78
2022/08/22 03:15:23;;;;;;;12.23;4.90;;;;;;;19.17;94.02;98290.84;1707076;84;21517;-79
2022/08/22 03:18:25;;;;;;;11.48;5.05;;;;;;;19.15;94.21;98295.87;1706700;84;21031;-79
2022/08/22 03:21:33;;;;;;;14.75;4.92;;;;;;;19.10;93.99;98299.30;1704564;84;21103;-79
2022/08/22 03:24:23;;;;;;;9.38;4.85;;;;;;;19.05;93.61;98300.96;1705161;84;21809;-80
2022/08/22 03:27:07;;;;;;;9.88;5.05;;;;;;;19.05;93.98;98307.55;1730730;83;21058;-80
2022/08/22 03:29:39;;;;;;;16.42;4.83;;;;;;;19.03;93.46;98303.70;1704554;84;20995;-79
2022/08/22 03:32:20;;;;;;;10.98;5.30;;;;;;;19.01;92.52;98311.36;1682375;84;21623;-78
2022/08/22 03:35:03;;;;;;;11.80;5.55;;;;;;;19.01;93.47;98310.04;1706591;84;20982;-78
2022/08/22 03:37:40;;;;;;;16.45;5.85;;;;;;;18.98;93.99;98320.33;1706799;84;20998;-78
2022/08/22 03:40:30;;;;;;;17.48;5.28;;;;;;;18.96;93.59;98321.38;1702746;84;21020;-78
2022/08/22 03:43:40;;;;;;;14.30;5.15;;;;;;;18.94;93.91;98324.14;1706770;84;21080;-77
2022/08/22 03:46:18;;;;;;;15.72;5.95;;;;;;;18.91;93.56;98322.19;1705188;84;20997;-78
2022/08/22 03:49:14;;;;;;;17.55;5.87;;;;;;;18.87;93.87;98330.30;1705375;84;21045;-79
2022/08/22 03:52:09;;;;;;;12.33;5.90;;;;;;;18.92;94.13;98335.71;1691915;84;21060;-78
2022/08/22 03:55:04;;;;;;;9.80;5.05;;;;;;;18.95;94.77;98335.02;1665123;84;21037;-79
2022/08/22 03:58:12;;;;;;;9.50;5.17;;;;;;;19.04;94.36;98337.01;1706395;84;21580;-79
2022/08/22 04:01:24;;;;;;;11.53;5.67;;;;;;;19.08;94.55;98338.95;1706824;84;21001;-79
2022/08/22 04:04:31;;;;;;;12.65;5.35;;;;;;;19.14;94.46;98331.05;1682612;84;21052;-79
2022/08/22 04:07:14;;;;;;;10.80;4.92;;;;;;;19.21;94.67;98336.25;1691750;84;21001;-78
2022/08/22 04:10:21;;;;;;;15.55;5.08;;;;;;;19.28;95.03;98328.28;1706381;84;21028;-78
2022/08/22 04:13:13;;;;;;;12.28;5.30;;;;;;;19.34;94.57;98338.38;1706341;84;21061;-82
2022/08/22 04:16:36;;;;;;;11.48;5.30;;;;;;;19.38;94.64;98338.51;1688349;84;21048;-79
2022/08/22 04:19:38;;;;;;;14.23;5.42;;;;;;;19.46;94.92;98339.27;1706548;84;21009;-79
2022/08/22 04:22:32;;;;;;;11.03;5.33;;;;;;;19.52;94.50;98341.45;1706343;84;21057;-78
2022/08/22 04:25:34;;;;;;;11.48;5.60;;;;;;;19.56;94.28;98345.54;1736526;82;21023;-79
2022/08/22 04:28:30;;;;;;;12.50;5.83;;;;;;;19.60;93.98;98344.84;1687971;84;21047;-79
2022/08/22 04:31:12;;;;;;;13.03;5.92;;;;;;;19.60;93.45;98356.22;1731568;82;21035;-79
2022/08/22 04:33:50;;;;;;;18.93;8.00;;;;;;;19.64;93.82;98358.99;1714133;84;21054;-79
2022/08/22 04:36:28;;;;;;;18.73;6.50;;;;;;;19.70;94.14;98359.02;1713556;84;21026;-79
2022/08/22 04:39:09;;;;;;;16.05;6.33;;;;;;;19.76;93.86;98361.72;1714673;84;21067;-79
2022/08/22 04:41:52;;;;;;;11.95;5.85;;;;;;;19.77;93.46;98364.22;1714284;83;21023;-79
2022/08/22 04:44:33;;;;;;;14.80;7.00;;;;;;;19.79;93.30;98362.30;1763387;81;21519;-79
2022/08/22 04:47:19;;;;;;;11.63;6.17;;;;;;;19.84;92.98;98355.39;1763314;81;21047;-79
2022/08/22 04:50:00;;;;;;;15.80;7.10;;;;;;;19.86;92.68;98370.62;1762667;81;21034;-79
2022/08/22 04:53:06;;;;;;;21.37;6.62;;;;;;;19.86;92.55;98367.98;1746159;81;21091;-79
2022/08/22 04:55:44;;;;;;;14.53;6.12;;;;;;;19.90;91.99;98369.92;1763497;81;21050;-79
2022/08/22 04:58:21;;;;;;;10.40;5.28;;;;;;;19.81;92.26;98371.42;1763351;81;21015;-78
2022/08/22 05:01:18;;;;;;;16.50;5.75;;;;;;;19.79;92.07;98364.11;1742827;81;21005;-80
2022/08/22 05:03:59;;;;;;;13.88;6.35;;;;;;;19.80;92.25;98375.03;1736740;82;21519;-79
2022/08/22 05:06:30;;;;;;;15.38;6.08;;;;;;;19.79;92.24;98374.17;1697231;84;21562;-79
2022/08/22 05:09:02;;;;;;;13.32;5.58;;;;;;;19.80;92.42;98378.98;1687789;84;21482;-79
2022/08/22 05:11:31;;;;;;;16.33;6.03;;;;;;;19.76;92.22;98379.69;1688116;84;21045;-79
2022/08/22 05:14:03;;;;;;;15.48;6.20;;;;;;;19.77;92.47;98389.75;1688061;84;20966;-78
2022/08/22 05:16:39;;;;;;;13.43;6.08;;;;;;;19.81;92.63;98392.52;1726223;83;20984;-80
2022/08/22 05:19:11;;;;;;;15.55;5.70;;;;;;;19.82;92.46;98400.33;1696164;84;21054;-79
2022/08/22 05:21:40;;;;;;;10.70;5.40;;;;;;;19.81;92.12;98401.76;1712866;84;21027;-79
2022/08/22 05:24:12;;;;;;;11.95;5.53;;;;;;;19.80;92.10;98403.56;1696741;84;21016;-79
2022/08/22 05:26:45;;;;;;;12.77;4.83;;;;;;;19.79;92.10;98395.75;1702768;84;21090;-80
2022/08/22 05:29:16;;;;;;;16.97;7.97;;;;;;;19.82;92.19;98390.27;1703989;84;21056;-81
2022/08/22 05:32:05;;;;;;;13.45;5.60;;;;;;;19.82;92.40;98378.40;1703763;84;21095;-79
2022/08/22 05:34:36;;;;;;;12.68;4.70;;;;;;;19.84;92.35;98380.44;1701852;84;21007;-79
2022/08/22 05:37:11;;;;;;;10.75;3.87;;;;;;;19.83;92.02;98375.63;1702271;84;20999;-79
2022/08/22 05:39:45;;;;;;;9.73;4.00;;;;;;;19.83;91.88;98371.66;1687891;84;21527;-78
2022/08/22 05:42:17;;;;;;;;;;;;;;;19.79;91.83;98364.94;1705830;84;21051;-79
2022/08/22 05:44:44;;;;;;;9.30;3.67;;;;;;;19.86;91.81;98368.81;1704200;84;20394;-78
2022/08/22 05:47:25;;;;;;;11.22;4.03;;;;;;;19.87;92.46;98373.61;1704800;84;21056;-80
2022/08/22 05:50:09;;;;;;;6.37;4.10;;;;;;;19.94;92.12;98376.16;1704706;84;21499;-79
2022/08/22 05:53:04;;;;;;;19.73;5.25;;;;;;;19.99;91.97;98373.16;1704338;84;22136;-78
2022/08/22 05:56:05;;;;;;;7.60;4.65;;;;;;;20.00;91.49;98370.41;1703452;84;21015;-80
2022/08/22 05:58:43;;;;;;;13.35;4.53;;;;;;;20.04;91.60;98371.86;1703216;84;21019;-80
2022/08/22 06:01:36;;;;;;;9.88;4.37;;;;;;;20.09;91.24;98364.91;1700440;84;21012;-80
2022/08/22 06:04:14;;;;;;;19.57;5.45;;;;;;;20.13;91.36;98371.63;1703359;84;21507;-79
2022/08/22 06:06:58;;;;;;;13.50;4.87;;;;;;;20.16;91.07;98375.86;1703820;84;21003;-79
2022/08/22 06:09:33;;;;;;;10.85;5.62;;;;;;;20.16;91.17;98380.66;1634188;84;21628;-79
2022/08/22 06:12:20;;;;;;;9.55;4.87;;;;;;;20.16;91.12;98383.78;1703833;84;21567;-78
2022/08/22 06:15:01;;;;;;;9.58;4.40;;;;;;;20.20;91.08;98385.22;1703595;84;21063;-80
2022/08/22 06:17:36;;;;;;;13.93;5.92;;;;;;;20.22;91.30;98385.46;1703337;84;21050;-79
2022/08/22 06:20:11;;;;;;;13.53;5.12;;;;;;;20.24;91.08;98383.55;1702422;84;21627;-79
2022/08/22 06:22:43;;;;;;;7.30;4.45;;;;;;;20.25;91.31;98387.02;1702541;84;21514;-80
2022/08/22 06:25:14;;;;;;;7.87;4.35;;;;;;;20.28;90.94;98385.97;1686905;84;21035;-79
2022/08/22 06:27:43;;;;;;;8.60;4.30;;;;;;;20.31;90.98;98385.72;1687477;84;21047;-80
2022/08/22 06:30:13;;;;;;;10.68;5.20;;;;;;;20.34;90.67;98389.45;1688375;85;21050;-78
2022/08/22 06:32:48;;;;;;;13.15;6.20;;;;;;;20.34;90.83;98390.28;1678108;85;21051;-77
2022/08/22 06:35:26;;;;;;;15.30;6.15;;;;;;;20.39;91.06;98400.48;1679797;84;21085;-78
2022/08/22 06:37:57;;;;;;;10.78;5.45;;;;;;;20.45;91.21;98401.33;1645728;85;21070;-79
2022/08/22 06:40:26;;;;;;;11.80;5.78;;;;;;;20.52;91.09;98399.08;1687708;85;21067;-79
2022/08/22 06:42:55;;;;;;;11.60;6.08;;;;;;;20.55;91.07;98393.09;1683089;83;21495;-80
2022/08/22 06:45:28;;;;;;;12.40;6.25;;;;;;;20.64;91.03;98395.52;1669535;85;21080;-80
2022/08/22 06:48:09;;;;;;;15.20;6.97;;;;;;;20.65;90.42;98394.54;1669657;83;21093;-78
2022/08/22 06:50:43;;;;;;;11.90;5.60;;;;;;;20.68;91.05;98398.28;1689190;84;21133;-79
2022/08/22 06:53:15;;;;;;;;;;;;;;;20.66;90.53;98397.55;1700989;83;21018;-79
2022/08/22 06:55:58;;;;;;;11.20;6.22;;;;;;;20.71;91.15;98399.83;1703985;83;20112;-79
2022/08/22 06:58:36;;;;;;;13.18;5.92;;;;;;;20.80;91.33;98401.28;1679143;84;21035;-80
2022/08/22 07:01:13;;;;;;;13.30;5.58;;;;;;;20.90;90.97;98400.56;1698710;84;21019;-78
2022/08/22 07:03:55;;;;;;;19.32;6.03;;;;;;;20.96;90.81;98404.88;1685879;84;21104;-80
2022/08/22 07:06:40;;;;;;;10.32;5.75;;;;;;;21.04;90.44;98403.78;1651339;84;21071;-79
2022/08/22 07:09:29;;;;;;;11.90;5.05;;;;;;;21.05;90.05;98410.77;1669879;84;21028;-79
2022/08/22 07:12:00;;;;;;;11.70;5.15;;;;;;;21.14;90.30;98418.44;1689428;84;21011;-80
2022/08/22 07:14:32;;;;;;;9.15;4.87;;;;;;;21.19;89.86;98414.95;1699511;83;21055;-80
2022/08/22 07:17:07;;;;;;;9.68;5.40;;;;;;;21.26;89.52;98415.30;1688299;84;21076;-79
2022/08/22 07:19:40;;;;;;;14.70;5.90;;;;;;;21.31;89.65;98421.07;1706500;83;21022;-79
2022/08/22 07:22:27;;;;;;;10.43;5.00;;;;;;;21.40;89.42;98429.56;1690752;84;21026;-80
2022/08/22 07:25:09;;;;;;;9.63;4.47;;;;;;;21.44;88.54;98423.09;1664041;85;21160;-80
2022/08/22 07:28:12;;;;;;;12.30;5.30;;;;;;;21.43;88.27;98424.56;1666198;85;21051;-80
2022/08/22 07:30:53;;;;;;;15.08;5.42;;;;;;;21.45;88.54;98421.31;1684934;84;21017;-81
2022/08/22 07:33:43;;;;;;;10.45;5.28;;;;;;;21.56;88.75;98432.34;1689512;84;21000;-81
2022/08/22 07:36:29;;;;;;;11.08;5.65;;;;;;;21.67;88.42;98427.52;1653357;86;21020;-81
2022/08/22 07:39:10;;;;;;;8.08;5.03;;;;;;;21.76;87.35;98430.22;1661100;85;21043;-80
2022/08/22 07:42:05;;;;;;;9.45;5.55;;;;;;;21.79;87.76;98429.16;1657348;85;21042;-79
2022/08/22 07:44:38;;;;;;;13.28;5.10;;;;;;;21.90;87.32;98431.73;1672047;85;21331;-79
2022/08/22 07:47:15;;;;;;;8.83;5.28;;;;;;;21.98;87.55;98436.41;1603775;86;21044;-80
2022/08/22 07:49:54;;;;;;;8.50;4.78;;;;;;;22.05;86.81;98435.77;1674975;85;21090;-81
2022/08/22 07:52:22;;;;;;;10.38;4.67;;;;;;;22.17;86.76;98425.14;1669175;85;21654;-80
2022/08/22 07:55:18;;;;;;;9.25;4.87;;;;;;;22.25;86.57;98426.69;1686187;84;21555;-81
2022/08/22 07:58:00;;;;;;;9.65;4.78;;;;;;;22.19;86.01;98410.80;1712104;83;21334;-81
2022/08/22 08:00:28;;;;;;;11.43;4.53;;;;;;;22.26;85.90;98427.52;1658049;84;21105;-80
2022/08/22 08:03:02;;;;;;;9.58;5.20;;;;;;;22.32;84.44;98425.22;1683565;85;21079;-81
2022/08/22 08:05:35;;;;;;;9.45;5.15;;;;;;;22.34;85.03;98422.41;1672746;85;21046;-81
2022/08/22 08:08:09;;;;;;;11.48;6.05;;;;;;;22.32;84.75;98424.36;1677080;85;21058;-79
2022/08/22 08:10:38;;;;;;;12.63;5.45;;;;;;;22.39;84.52;98419.73;1670887;85;21121;-82
2022/08/22 08:13:10;;;;;;;13.03;5.75;;;;;;;22.51;84.48;98422.33;1675452;85;21081;-81
2022/08/22 08:15:41;;;;;;;9.30;5.62;;;;;;;22.61;84.48;98425.38;1663307;85;21062;-80
2022/08/22 08:18:17;;;;;;;9.38;5.20;;;;;;;22.66;83.70;98418.38;1688677;82;21062;-80
2022/08/22 08:20:41;;;;;;;12.45;5.55;;;;;;;22.76;83.29;98428.53;1688136;83;21001;-81
2022/08/22 08:23:10;;;;;;;17.00;5.65;;;;;;;22.82;81.92;98422.70;1696702;81;21064;-81
2022/08/22 08:25:54;;;;;;;11.12;4.90;;;;;;;22.88;82.20;98421.80;1719004;82;21082;-81
2022/08/22 08:28:35;;;;;;;12.30;4.95;;;;;;;22.90;82.21;98414.09;1665941;83;21027;-81
2022/08/22 08:31:16;;;;;;;16.50;5.25;;;;;;;23.00;82.00;98419.44;1717157;83;21019;-81
2022/08/22 08:33:46;;;;;;;9.58;4.40;;;;;;;23.00;81.84;98417.62;1722011;83;21110;-80
2022/08/22 08:36:34;;;;;;;7.90;4.42;;;;;;;23.13;80.76;98419.22;1737866;82;21091;-80
2022/08/22 08:39:13;;;;;;;8.10;4.75;;;;;;;23.18;81.73;98426.30;1739482;82;21007;-81
2022/08/22 08:42:00;;;;;;;12.43;5.42;;;;;;;23.28;81.28;98421.00;1753345;82;21020;-80
2022/08/22 08:44:41;;;;;;;17.35;11.15;;;;;;;23.31;80.76;98420.73;1709774;82;21519;-80
2022/08/22 08:47:30;;;;;;;12.20;5.70;;;;;;;23.47;80.97;98424.19;1739531;82;21031;-80
2022/08/22 08:50:51;;;;;;;9.00;4.70;;;;;;;23.68;80.72;98429.41;1704370;84;21102;-80
2022/08/22 08:53:26;;;;;;;8.05;4.92;;;;;;;23.84;80.05;98427.07;1615714;88;21035;-80
2022/08/22 08:56:26;;;;;;;10.45;5.08;;;;;;;23.96;78.73;98418.48;1608608;89;21047;-81
2022/08/22 08:59:13;;;;;;;15.30;4.60;;;;;;;24.02;78.34;98421.91;1691634;84;21055;-81
2022/08/22 09:01:52;;;;;;;8.38;4.30;;;;;;;24.18;78.28;98422.66;1752080;81;21015;-81
2022/08/22 09:04:42;;;;;;;14.75;5.15;;;;;;;24.42;78.15;98424.36;1726326;83;20996;-80
2022/08/22 09:07:40;;;;;;;12.80;4.87;;;;;;;24.59;77.21;98426.82;1684086;84;21050;-81
2022/08/22 09:10:49;;;;;;;11.85;5.35;;;;;;;24.77;76.64;98431.36;1713086;84;21053;-81
2022/08/22 09:13:43;;;;;;;7.85;5.20;;;;;;;24.92;75.72;98429.09;1710069;84;20987;-80
2022/08/22 09:16:21;;;;;;;11.85;4.37;;;;;;;25.05;73.07;98425.61;1684546;84;21079;-82
2022/08/22 09:19:31;;;;;;;11.97;4.85;;;;;;;25.13;73.18;98417.73;1710816;84;21023;-81
2022/08/22 09:22:34;;;;;;;8.78;5.03;;;;;;;25.18;71.67;98427.42;1627425;87;21088;-81
2022/08/22 09:25:30;;;;;;;8.75;4.78;;;;;;;25.20;72.48;98427.28;1684297;84;21417;-81
2022/08/22 09:28:28;;;;;;;10.08;4.65;;;;;;;25.39;72.06;98433.86;1673791;85;21014;-81
2022/08/22 09:31:26;;;;;;;11.73;4.90;;;;;;;25.60;71.91;98430.08;1698348;84;21078;-81
2022/08/22 09:33:58;;;;;;;7.50;4.20;;;;;;;25.69;69.41;98431.85;1720091;83;21122;-81
2022/08/22 09:36:59;;;;;;;9.25;4.85;;;;;;;25.85;70.88;98433.84;1720316;83;21059;-80
2022/08/22 09:39:49;;;;;;;9.13;5.25;;;;;;;25.99;70.03;98425.34;1722346;83;21030;-81
2022/08/22 09:42:42;;;;;;;7.05;4.62;;;;;;;26.03;69.51;98426.38;1701587;83;21083;-80
2022/08/22 09:45:39;;;;;;;8.68;4.85;;;;;;;26.10;69.25;98426.95;1705308;83;21019;-81
2022/08/22 09:48:45;;;;;;;6.50;4.53;;;;;;;26.09;68.23;98420.44;1707126;83;21035;-80
2022/08/22 09:51:50;;;;;;;7.90;4.83;;;;;;;26.14;69.10;98418.99;1721482;83;21569;-81
2022/08/22 09:54:30;;;;;;;11.22;4.67;;;;;;;26.13;68.47;98419.97;1721707;83;21047;-81
2022/08/22 09:57:21;;;;;;;10.95;5.00;;;;;;;26.07;65.69;98413.92;1721625;83;21031;-80
2022/08/22 10:00:02;;;;;;;7.42;4.70;;;;;;;26.03;67.64;98411.73;1721752;83;20956;-81
2022/08/22 10:02:57;;;;;;;9.63;5.10;;;;;;;25.92;67.16;98412.78;1721803;83;21055;-80
2022/08/22 10:05:45;;;;;;;11.68;5.00;;;;;;;25.93;68.04;98419.80;1721830;83;21004;-80
2022/08/22 10:08:32;;;;;;;7.72;4.70;;;;;;;25.93;67.59;98411.31;1721692;83;21488;-82
2022/08/22 10:11:16;;;;;;;11.12;4.83;;;;;;;25.85;66.08;98403.72;1721711;83;21007;-81
2022/08/22 10:14:00;;;;;;;7.15;4.72;;;;;;;25.84;66.54;98407.36;1713029;83;21040;-81
2022/08/22 10:16:56;;;;;;;9.30;4.78;;;;;;;25.81;66.94;98404.52;1721972;83;20999;-82
2022/08/22 10:19:43;;;;;;;8.40;4.53;;;;;;;25.84;67.27;98395.38;1706550;83;22149;-82
2022/08/22 10:22:36;;;;;;;12.15;4.97;;;;;;;25.92;67.03;98397.64;1713020;83;21052;-82
2022/08/22 10:25:18;;;;;;;;;;;;;;;26.07;67.29;98401.94;1715266;83;21055;-81
2022/08/22 10:28:18;;;;;;;12.18;4.65;;;;;;;26.11;65.99;98406.47;1719816;83;20208;-82
2022/08/22 10:30:56;;;;;;;9.88;4.70;;;;;;;26.18;66.51;98404.84;1631989;86;21042;-82
2022/08/22 10:33:28;;;;;;;8.73;4.58;;;;;;;26.34;67.11;98394.80;1672944;86;21119;-82
2022/08/22 10:36:16;;;;;;;11.73;4.53;;;;;;;26.52;66.95;98400.94;1663795;85;21538;-82
2022/08/22 10:38:53;;;;;;;8.48;4.65;;;;;;;26.61;66.14;98394.36;1697051;84;21176;-82
2022/08/22 10:41:35;;;;;;;17.62;5.00;;;;;;;26.61;64.68;98393.85;1730228;83;21026;-81
2022/08/22 10:44:22;;;;;;;8.65;4.55;;;;;;;26.64;65.18;98393.55;1734367;82;21024;-82
2022/08/22 10:47:09;;;;;;;7.28;4.78;;;;;;;26.59;64.14;98397.17;1752160;82;21016;-82
2022/08/22 10:49:53;;;;;;;10.18;4.45;;;;;;;26.61;64.40;98389.85;1731909;83;21012;-82
2022/08/22 10:52:30;;;;;;;10.63;4.80;;;;;;;26.57;63.08;98396.47;1714512;82;20979;-81
2022/08/22 10:55:16;;;;;;;9.63;4.62;;;;;;;26.55;63.49;98387.78;1741885;82;21012;-80
2022/08/22 10:58:06;;;;;;;10.90;4.80;;;;;;;26.55;63.16;98389.12;1733001;83;21530;-81
2022/08/22 11:00:44;;;;;;;9.33;4.83;;;;;;;26.53;63.06;98393.27;1721807;82;21052;-81
2022/08/22 11:03:16;;;;;;;8.78;4.60;;;;;;;26.58;63.14;98390.16;1744613;82;21014;-81
2022/08/22 11:05:45;;;;;;;9.78;4.45;;;;;;;26.61;62.13;98391.69;1728930;83;21063;-82
2022/08/22 11:08:26;;;;;;;14.07;4.80;;;;;;;26.68;61.87;98388.71;1728881;83;21023;-81
2022/08/22 11:11:36;;;;;;;8.48;4.28;;;;;;;26.78;62.09;98381.46;1728014;83;21055;-81
2022/08/22 11:14:43;;;;;;;7.67;4.83;;;;;;;26.78;61.67;98379.63;1714107;83;21054;-82
2022/08/22 11:17:18;;;;;;;10.18;5.05;;;;;;;26.81;62.09;98368.30;1735410;82;20980;-82
2022/08/22 11:20:13;;;;;;;8.05;4.75;;;;;;;26.95;62.04;98369.02;1737403;82;21023;-80
2022/08/22 11:22:45;;;;;;;7.42;4.47;;;;;;;27.08;61.83;98370.75;1728957;83;21044;-82
2022/08/22 11:25:45;;;;;;;9.38;4.28;;;;;;;27.08;61.35;98365.41;1746532;81;21540;-81
2022/08/22 11:28:32;;;;;;;10.35;4.87;;;;;;;27.14;61.45;98363.42;1751330;82;21492;-81
2022/08/22 11:31:10;;;;;;;8.88;4.35;;;;;;;27.14;61.03;98366.09;1715367;83;21067;-81
2022/08/22 11:34:06;;;;;;;9.90;4.40;;;;;;;27.20;61.55;98364.62;1650562;83;21947;-81
2022/08/22 11:36:50;;;;;;;9.13;4.75;;;;;;;27.23;61.06;98363.45;1716601;83;21059;-81
2022/08/22 11:39:59;;;;;;;15.23;4.65;;;;;;;27.33;58.13;98358.83;1712829;83;21281;-81
2022/08/22 11:42:49;;;;;;;8.55;4.20;;;;;;;27.41;59.81;98338.00;1730052;82;21074;-81
2022/08/22 11:45:22;;;;;;;9.38;4.55;;;;;;;27.49;60.18;98337.50;1720094;83;21555;-81
2022/08/22 11:48:06;;;;;;;7.80;4.45;;;;;;;27.57;60.05;98330.00;1729852;83;20972;-80
2022/08/22 11:50:43;;;;;;;7.55;4.00;;;;;;;27.57;57.43;98326.86;1744342;82;21020;-81
2022/08/22 11:53:27;;;;;;;7.20;4.58;;;;;;;27.67;59.16;98323.17;1734067;82;21018;-82
2022/08/22 11:56:09;;;;;;;8.30;4.35;;;;;;;27.73;59.55;98319.32;1733302;83;21090;-81
2022/08/22 11:58:53;;;;;;;8.00;4.90;;;;;;;27.58;59.00;98318.34;1733091;83;21039;-81
2022/08/22 12:01:29;;;;;;;9.03;4.47;;;;;;;27.58;58.52;98317.00;1735707;83;21039;-81
2022/08/22 12:04:07;;;;;;;9.83;4.95;;;;;;;27.61;58.44;98314.50;1731984;83;21000;-80
2022/08/22 12:06:40;;;;;;;8.43;4.25;;;;;;;27.84;58.63;98314.67;1736530;82;20996;-81
2022/08/22 12:09:31;;;;;;;9.33;4.42;;;;;;;28.00;58.25;98316.53;1737538;82;21495;-82
2022/08/22 12:12:21;;;;;;;8.88;4.87;;;;;;;28.17;56.23;98318.16;1734540;82;21536;-82
2022/08/22 12:15:21;;;;;;;9.93;4.05;;;;;;;28.37;56.99;98319.94;1744992;82;21033;-82
2022/08/22 12:18:26;;;;;;;12.00;4.70;;;;;;;28.55;56.22;98311.73;1732932;83;21535;-82
2022/08/22 12:21:10;;;;;;;7.40;4.60;;;;;;;28.75;54.60;98315.69;1694555;83;21099;-81
2022/08/22 12:24:08;;;;;;;8.28;4.10;;;;;;;29.06;56.27;98310.84;1710527;82;21031;-80
2022/08/22 12:27:00;;;;;;;13.28;4.47;;;;;;;29.57;54.58;98305.55;1762344;80;21023;-80
2022/08/22 12:30:06;;;;;;;9.63;5.08;;;;;;;30.10;50.32;98297.91;1729097;81;21050;-81
2022/08/22 12:32:44;;;;;;;6.92;4.30;;;;;;;30.82;52.95;98291.06;1711898;83;21134;-81
2022/08/22 12:35:35;;;;;;;6.85;4.00;;;;;;;31.13;52.28;98287.31;1716308;84;21581;-82
2022/08/22 12:38:37;;;;;;;10.72;4.15;;;;;;;31.24;51.72;98285.47;1712942;83;21044;-80
2022/08/22 12:41:41;;;;;;;5.15;3.50;;;;;;;31.72;51.99;98283.57;1684505;84;21046;-80
2022/08/22 12:44:45;;;;;;;7.08;3.62;;;;;;;31.86;48.91;98289.89;1711520;83;21602;-80
2022/08/22 12:47:23;;;;;;;6.53;3.70;;;;;;;31.88;48.65;98289.18;1700578;84;20991;-82
2022/08/22 12:50:18;;;;;;;7.65;3.50;;;;;;;32.30;47.76;98290.94;1712110;84;20999;-83
2022/08/22 12:53:10;;;;;;;9.40;3.58;;;;;;;33.04;48.32;98288.61;1687630;84;20973;-82